Details From PAJN - Juneau Intl
To CYXY - Whitehorse Intl
Flight Number -
Tags Generated
Created
Modified
Stats Distance 142 nm / 263 km
Max Altitude 0 ft / 0 m
Waypoints 3
Social Downloads 4
Likes 0
Share VATSIM

Download

Looking for another format? Having issues loading an existing format? Contact us
Advertisement - Login to hide

Notes

Generated

Route

PAJN ZXY CYXY

ID Type Via Altitude Latitude Longitude Leg Dist Tot Dist Heading (true) Name
O PAJN APT - 0 ft / 0 m 58.35793˚ -134.59756˚ - 0 nm - -
ZXY NDB - 0 ft / 0 m 60.63639˚ -135.00889˚ 137 nm 137 nm 355° / 355° KLONDIKE NDB
O CYXY APT - 0 ft / 0 m 60.71102˚ -135.07253˚ 4 nm 142 nm 337° / 337° WHITEHORSE INTL

Altitude Profile

Advertisement - Login to hide

PAJN

Details ICAO PAJN (JNU)
Name Juneau Intl
Region USA (Alaska)
Timezone America/Juneau (UTC-8.0)
Stats Elevation 21 ft / 6 m (AMSL)
Location 58.354964° -134.576278°
Runways 1
Magnetic Variation 19.017° E

METAR

PAJN 271727Z 13017KT 10SM -RA FEW006 BKN035 BKN070 08/06 A2983

Decode

TAF

PAJN 271730Z 2718/2818 11015G25KT P6SM -SHRA FEW006 BKN035 OVC070 TEMPO 2718/2722 BKN025 FM280000 11010KT P6SM -SHRA OVC035

Decode

Departure Runways

ID Width Length Bearing (true) Bearing (mag) Surface Threshold Offset Overrun Length
08 150 ft / 46 m 8,430 ft / 2,570 m 104.87° 85.85° Asphalt 0 ft / 0 m 450 ft / 137 m
26 150 ft / 46 m 8,430 ft / 2,570 m 284.90° 265.88° Asphalt 0 ft / 0 m 225 ft / 69 m

CYXY

Details ICAO CYXY (YXY)
Name WHITEHORSE INTL
Region Canada
Timezone America/Whitehorse (UTC-7.0)
Stats Elevation 2,317 ft / 706 m (AMSL)
Location 60.712191° -135.067108°
Runways 3
Magnetic Variation 19.531° E

METAR

CYXY 271700Z 13007G19KT 100V170 40SM FEW045 BKN110 BKN210 08/M01 A2967 RMK CU1AC4CI2 SLP071 DENSITY ALT 2400FT

Decode

TAF

TAF CYXY 271739Z 2718/2818 15010G20KT P6SM FEW050 BKN120 FM272000 17015G25KT P6SM BKN060 TEMPO 2720/2802 P6SM -SHRA FM280200 18010KT P6SM SCT070 BKN150 FM280800 17008KT P6SM SCT200 RMK NXT FCST BY 280000Z

Decode

Destination Runways

ID Width Length Bearing (true) Bearing (mag) Surface Threshold Offset Overrun Length
01 75 ft / 23 m 2,070 ft / 631 m 31.99° 12.46° Asphalt 335 ft / 102 m 0 ft / 0 m
13L 80 ft / 24 m 3,922 ft / 1,195 m 158.54° 139.01° Asphalt 0 ft / 0 m 0 ft / 0 m
13R 150 ft / 46 m 9,469 ft / 2,886 m 159.27° 139.74° Asphalt 850 ft / 259 m 100 ft / 30 m
19 75 ft / 23 m 2,070 ft / 631 m 212.00° 192.47° Asphalt 0 ft / 0 m 0 ft / 0 m
31L 150 ft / 46 m 9,469 ft / 2,886 m 339.29° 319.76° Asphalt 1,400 ft / 427 m 100 ft / 30 m
31R 80 ft / 24 m 3,922 ft / 1,195 m 338.54° 319.01° Asphalt 0 ft / 0 m 0 ft / 0 m

Popular Alternatives